createdAt,value
2022-10-07T03:01:46.691Z,10.27
2022-10-07T03:04:13.741Z,10.85
2022-10-07T03:06:42.914Z,11.02
2022-10-07T03:09:09.783Z,10.15
2022-10-07T03:11:37.693Z,11.15
2022-10-07T03:14:05.815Z,11.63
2022-10-07T03:16:32.778Z,11.10
2022-10-07T03:18:59.732Z,10.93
2022-10-07T03:21:26.822Z,10.20
2022-10-07T03:23:54.240Z,10.45
2022-10-07T03:26:21.222Z,11.27
2022-10-07T03:28:48.537Z,11.68
2022-10-07T03:31:15.595Z,11.75
2022-10-07T03:33:42.667Z,11.93
2022-10-07T03:36:09.435Z,10.50
2022-10-07T03:38:36.258Z,12.63
2022-10-07T03:41:04.584Z,12.40
2022-10-07T03:43:32.117Z,12.75
2022-10-07T03:46:02.386Z,13.63
2022-10-07T03:48:30.687Z,14.23
2022-10-07T03:50:57.797Z,14.30
2022-10-07T03:53:26.170Z,14.57
2022-10-07T03:55:53.094Z,13.63
2022-10-07T03:58:20.872Z,14.27
2022-10-07T04:00:48.072Z,13.65
2022-10-07T04:03:15.759Z,14.02
2022-10-07T04:05:42.664Z,14.43
2022-10-07T04:08:15.784Z,13.57
2022-10-07T04:13:09.506Z,12.77
2022-10-07T04:15:36.737Z,14.93
2022-10-07T04:18:03.482Z,13.75
2022-10-07T04:20:30.285Z,16.08
2022-10-07T04:22:57.129Z,16.02
2022-10-07T04:25:35.836Z,16.65
2022-10-07T04:28:05.693Z,16.48
2022-10-07T04:30:34.704Z,15.77
2022-10-07T04:33:02.846Z,17.02
2022-10-07T04:35:29.878Z,16.60
2022-10-07T04:37:57.116Z,17.42
2022-10-07T04:40:24.085Z,16.63
2022-10-07T04:43:09.784Z,18.50
2022-10-07T04:45:36.626Z,19.05
2022-10-07T04:48:05.718Z,17.20
2022-10-07T04:50:38.906Z,17.80
2022-10-07T04:55:40.057Z,19.05
2022-10-07T04:58:07.005Z,19.92
2022-10-07T05:00:34.294Z,19.23
2022-10-07T05:03:01.204Z,19.33
2022-10-07T05:05:28.076Z,19.85
2022-10-07T05:07:55.232Z,20.50
2022-10-07T05:10:22.166Z,20.60
2022-10-07T05:12:52.535Z,21.00
2022-10-07T05:15:22.339Z,21.63
2022-10-07T05:17:49.442Z,19.40
2022-10-07T05:20:16.213Z,19.90
2022-10-07T05:22:42.960Z,21.67
2022-10-07T05:25:09.707Z,23.08
2022-10-07T05:27:36.444Z,22.17
2022-10-07T05:30:03.474Z,20.15
2022-10-07T05:32:30.295Z,22.90
2022-10-07T05:34:57.030Z,24.08
2022-10-07T05:37:24.000Z,25.08
2022-10-07T05:39:51.954Z,23.67
2022-10-07T05:42:18.689Z,22.73
2022-10-07T05:44:46.216Z,23.48
2022-10-07T05:47:13.141Z,22.50
2022-10-07T05:49:41.416Z,24.67
2022-10-07T05:52:08.296Z,22.00
2022-10-07T05:54:35.067Z,22.10
2022-10-07T05:57:02.986Z,21.75
2022-10-07T05:59:31.146Z,22.77
2022-10-07T06:02:00.614Z,22.95
2022-10-07T06:04:27.598Z,21.45
2022-10-07T06:06:54.354Z,23.05
2022-10-07T06:09:39.519Z,20.52
2022-10-07T06:12:25.059Z,20.45
2022-10-07T06:14:51.791Z,19.85
2022-10-07T06:17:18.565Z,21.42
2022-10-07T06:19:45.272Z,20.80
2022-10-07T06:22:12.087Z,20.05
2022-10-07T06:24:38.821Z,20.80
2022-10-07T06:27:05.547Z,21.65
2022-10-07T06:29:32.426Z,20.50
2022-10-07T06:31:59.603Z,20.73
2022-10-07T06:34:26.357Z,21.02
2022-10-07T06:36:54.787Z,18.98
2022-10-07T06:39:21.575Z,17.05
2022-10-07T06:41:48.350Z,16.77
2022-10-07T06:44:15.091Z,15.13
2022-10-07T06:46:41.832Z,15.90
2022-10-07T06:49:08.574Z,18.70
2022-10-07T06:51:35.269Z,19.42
2022-10-07T06:54:02.021Z,21.38
2022-10-07T06:56:29.051Z,23.92
2022-10-07T06:58:55.835Z,24.70
2022-10-07T07:01:23.125Z,25.45
2022-10-07T07:03:49.861Z,25.27
2022-10-07T07:06:16.626Z,24.75
2022-10-07T07:08:45.844Z,23.85
2022-10-07T07:11:32.117Z,24.85
2022-10-07T07:13:58.968Z,25.90
2022-10-07T07:16:25.785Z,27.25
2022-10-07T07:18:56.443Z,27.27
2022-10-07T07:21:23.407Z,27.77
2022-10-07T07:23:51.686Z,25.25
2022-10-07T07:26:18.482Z,25.13
2022-10-07T07:28:50.491Z,26.25
2022-10-07T07:31:17.232Z,24.77
2022-10-07T07:33:43.995Z,24.00
2022-10-07T07:36:17.633Z,23.80
2022-10-07T07:38:54.018Z,25.83
2022-10-07T07:41:21.801Z,23.33
2022-10-07T07:43:50.505Z,22.85
2022-10-07T07:46:18.776Z,22.00
2022-10-07T07:48:46.466Z,22.67
2022-10-07T07:51:14.114Z,22.98
2022-10-07T07:53:40.891Z,22.67
2022-10-07T07:56:07.641Z,22.27
2022-10-07T07:58:34.420Z,19.85
2022-10-07T08:01:06.160Z,20.75
2022-10-07T08:03:33.678Z,20.45
2022-10-07T08:06:02.011Z,20.55
2022-10-07T08:08:30.101Z,20.25
2022-10-07T08:10:57.698Z,18.40
2022-10-07T08:13:24.862Z,18.38
2022-10-07T08:15:56.900Z,19.00
2022-10-07T08:18:24.275Z,18.52
2022-10-07T08:21:01.863Z,18.05
2022-10-07T08:23:30.208Z,18.10
2022-10-07T08:25:57.343Z,18.13
2022-10-07T08:28:24.270Z,17.02
2022-10-07T08:30:51.756Z,17.08
2022-10-07T08:33:18.780Z,17.63
2022-10-07T08:35:52.296Z,16.85
2022-10-07T08:38:19.076Z,17.08
2022-10-07T08:40:49.507Z,17.05
2022-10-07T08:43:17.461Z,17.27
2022-10-07T08:45:44.651Z,16.25
2022-10-07T08:48:14.639Z,15.80
2022-10-07T08:50:52.452Z,16.95
2022-10-07T08:53:23.019Z,16.23
2022-10-07T08:55:56.792Z,15.65
2022-10-07T08:58:35.486Z,15.85
2022-10-07T09:01:24.692Z,17.58
2022-10-07T09:04:03.473Z,15.93
2022-10-07T09:06:42.636Z,16.33
2022-10-07T09:09:21.599Z,15.27
2022-10-07T09:11:48.361Z,15.32
2022-10-07T09:14:28.207Z,15.85
2022-10-07T09:17:04.606Z,15.65
2022-10-07T09:19:38.222Z,14.77
2022-10-07T09:22:11.209Z,15.45
2022-10-07T09:24:38.071Z,14.55
2022-10-07T09:27:11.853Z,16.83
2022-10-07T09:29:38.881Z,15.25
2022-10-07T09:32:05.627Z,14.82
2022-10-07T09:34:32.387Z,14.90
2022-10-07T09:37:11.987Z,14.50
2022-10-07T09:39:39.083Z,13.75
2022-10-07T09:42:07.312Z,14.60
2022-10-07T09:44:34.117Z,12.90
2022-10-07T09:47:19.185Z,11.95
2022-10-07T09:49:48.604Z,10.23
2022-10-07T09:52:19.406Z,10.35
2022-10-07T09:54:47.662Z,10.10
2022-10-07T09:57:27.653Z,10.15
2022-10-07T10:00:16.458Z,10.45
2022-10-07T10:02:54.750Z,9.77
2022-10-07T10:05:35.573Z,10.10
2022-10-07T10:08:23.037Z,9.57
2022-10-07T10:11:00.047Z,9.80
2022-10-07T10:13:32.188Z,10.45
2022-10-07T10:15:59.326Z,11.52
2022-10-07T10:18:33.887Z,10.52
2022-10-07T10:21:27.109Z,11.23
2022-10-07T10:23:56.958Z,9.52
2022-10-07T10:26:52.015Z,9.55
2022-10-07T10:29:37.562Z,10.00
2022-10-07T10:32:22.634Z,9.88
2022-10-07T10:35:03.502Z,10.18
2022-10-07T10:37:50.371Z,10.48
2022-10-07T10:40:52.026Z,10.15
2022-10-07T10:43:24.750Z,10.95
2022-10-07T10:46:25.799Z,10.88
2022-10-07T10:49:20.099Z,9.80
2022-10-07T10:52:08.635Z,9.23
2022-10-07T10:54:52.803Z,8.90
2022-10-07T10:57:31.791Z,8.23
2022-10-07T11:00:15.426Z,9.30
2022-10-07T11:03:05.788Z,8.93
2022-10-07T11:05:35.791Z,8.73
2022-10-07T11:08:04.996Z,8.00
2022-10-07T11:10:55.585Z,7.55
2022-10-07T11:13:37.466Z,7.22
2022-10-07T11:16:39.569Z,6.80
2022-10-07T11:19:24.258Z,7.47
2022-10-07T11:21:52.398Z,7.40
2022-10-07T11:24:56.904Z,6.95
2022-10-07T11:27:31.003Z,7.18
2022-10-07T11:29:57.829Z,6.68
2022-10-07T11:32:25.184Z,7.45
2022-10-07T11:35:19.583Z,7.60
2022-10-07T11:38:10.855Z,8.45
2022-10-07T11:40:52.733Z,7.97
2022-10-07T11:43:38.179Z,8.40
2022-10-07T11:46:11.672Z,8.77
2022-10-07T11:48:42.695Z,9.57
2022-10-07T11:51:09.504Z,8.48
2022-10-07T11:53:37.791Z,8.45
2022-10-07T11:56:40.965Z,9.13
2022-10-07T11:59:07.859Z,9.45
2022-10-07T12:01:34.662Z,8.68
2022-10-07T12:04:22.347Z,9.13
2022-10-07T12:07:26.503Z,8.77
2022-10-07T12:09:59.479Z,8.80
2022-10-07T12:12:46.690Z,8.18
2022-10-07T12:15:23.789Z,8.43
2022-10-07T12:18:17.672Z,8.55
2022-10-07T12:20:51.681Z,8.63
2022-10-07T12:23:25.913Z,8.57
2022-10-07T12:25:59.549Z,8.38
2022-10-07T12:28:35.769Z,8.15
2022-10-07T12:31:06.160Z,7.50
2022-10-07T12:33:35.988Z,8.68
2022-10-07T12:36:31.235Z,7.70
2022-10-07T12:38:59.154Z,7.32
2022-10-07T12:41:25.897Z,7.47
2022-10-07T12:44:06.412Z,8.15
2022-10-07T12:46:50.251Z,7.38
2022-10-07T12:49:31.063Z,7.55
2022-10-07T12:52:23.335Z,7.13
2022-10-07T12:55:00.938Z,7.00
2022-10-07T12:57:35.534Z,6.30
2022-10-07T13:00:13.582Z,6.35
2022-10-07T13:02:55.751Z,6.40
2022-10-07T13:05:53.489Z,5.97
2022-10-07T13:08:38.898Z,6.30
2022-10-07T13:11:17.508Z,5.55
2022-10-07T13:13:55.532Z,5.55
2022-10-07T13:16:39.914Z,6.70
2022-10-07T13:19:15.750Z,6.20
2022-10-07T13:21:58.992Z,6.18
2022-10-07T13:24:26.299Z,6.07
2022-10-07T13:26:53.066Z,6.47
2022-10-07T13:29:24.760Z,6.50
2022-10-07T13:32:17.977Z,6.22
2022-10-07T13:34:46.372Z,6.40
2022-10-07T13:37:35.000Z,6.05
2022-10-07T13:40:20.934Z,6.40
2022-10-07T13:42:59.203Z,5.93
2022-10-07T13:45:26.390Z,6.38
2022-10-07T13:47:53.174Z,6.72
2022-10-07T13:50:30.631Z,6.05
2022-10-07T13:52:57.428Z,6.85
2022-10-07T13:55:28.287Z,6.53
2022-10-07T13:57:57.439Z,7.05
2022-10-07T14:00:25.075Z,7.07
2022-10-07T14:02:52.275Z,6.63
2022-10-07T14:05:24.967Z,6.28
2022-10-07T14:07:56.134Z,6.90
2022-10-07T14:10:24.993Z,6.72
2022-10-07T14:12:56.773Z,7.35
2022-10-07T14:15:25.023Z,7.43
2022-10-07T14:17:55.306Z,7.55
2022-10-07T14:20:26.896Z,7.10
2022-10-07T14:22:54.985Z,7.47
2022-10-07T14:25:29.112Z,7.63
2022-10-07T14:28:07.690Z,7.22
2022-10-07T14:30:57.161Z,6.63
2022-10-07T14:34:03.392Z,8.48
2022-10-07T14:36:30.178Z,6.22
2022-10-07T14:38:59.905Z,5.85
2022-10-07T14:41:28.844Z,6.50
2022-10-07T14:44:00.078Z,8.00
2022-10-07T14:46:27.746Z,6.07
2022-10-07T14:48:54.678Z,5.60
2022-10-07T14:51:27.728Z,5.70
2022-10-07T14:54:02.141Z,6.25
2022-10-07T14:56:31.231Z,5.93
2022-10-07T14:58:58.033Z,5.45
2022-10-07T15:01:25.196Z,6.20
2022-10-07T15:03:52.806Z,6.47
2022-10-07T15:06:19.946Z,6.32
2022-10-07T15:08:47.219Z,6.82
2022-10-07T15:11:18.704Z,6.43
2022-10-07T15:13:50.044Z,6.03
2022-10-07T15:16:25.525Z,6.35
2022-10-07T15:18:53.302Z,6.40
2022-10-07T15:21:23.907Z,6.43
2022-10-07T15:23:54.017Z,6.00
2022-10-07T15:26:25.150Z,5.97
2022-10-07T15:28:56.500Z,6.25
2022-10-07T15:31:24.821Z,6.05
2022-10-07T15:33:51.897Z,6.70
2022-10-07T15:36:18.701Z,6.22
2022-10-07T15:38:45.531Z,5.85
2022-10-07T15:41:34.193Z,6.25
2022-10-07T15:44:03.137Z,5.95
2022-10-07T15:46:31.049Z,7.22
2022-10-07T15:48:59.191Z,6.32
2022-10-07T15:51:26.479Z,6.32
2022-10-07T15:53:53.822Z,6.53
2022-10-07T15:56:20.926Z,7.28
2022-10-07T15:58:47.912Z,7.03
2022-10-07T16:01:15.461Z,7.63
2022-10-07T16:03:43.870Z,7.22
2022-10-07T16:06:21.503Z,6.78
2022-10-07T16:08:51.942Z,8.13
2022-10-07T16:11:19.595Z,6.90
2022-10-07T16:13:49.425Z,6.88
2022-10-07T16:16:22.783Z,7.45
2022-10-07T16:18:50.448Z,7.45
2022-10-07T16:21:22.706Z,8.63
2022-10-07T16:23:55.018Z,7.07
2022-10-07T16:26:24.461Z,7.45
2022-10-07T16:29:09.953Z,7.97
2022-10-07T16:31:40.307Z,7.43
2022-10-07T16:34:07.659Z,8.13
2022-10-07T16:36:35.945Z,8.38
2022-10-07T16:39:08.717Z,8.48
2022-10-07T16:41:41.422Z,8.70
2022-10-07T16:44:08.275Z,8.75
2022-10-07T16:46:35.120Z,7.70
2022-10-07T16:49:03.556Z,8.80
2022-10-07T16:51:33.231Z,8.88
2022-10-07T16:54:01.758Z,8.05
2022-10-07T16:56:37.745Z,8.43
2022-10-07T16:59:06.809Z,8.77
2022-10-07T17:01:33.794Z,9.10
2022-10-07T17:04:01.041Z,8.45
2022-10-07T17:06:29.431Z,8.55
2022-10-07T17:08:56.750Z,9.80
2022-10-07T17:11:29.870Z,9.15
2022-10-07T17:14:01.591Z,8.48
2022-10-07T17:16:29.813Z,9.00
2022-10-07T17:18:56.611Z,10.90
2022-10-07T17:21:23.399Z,10.05
2022-10-07T17:23:50.325Z,9.23
2022-10-07T17:26:17.417Z,9.40
2022-10-07T17:28:44.297Z,9.48
2022-10-07T17:31:12.870Z,9.57
2022-10-07T17:33:40.579Z,9.00
2022-10-07T17:36:08.226Z,9.48
2022-10-07T17:38:38.825Z,9.32
2022-10-07T17:41:16.641Z,8.40
2022-10-07T17:43:43.749Z,9.40
2022-10-07T17:46:12.778Z,9.23
2022-10-07T17:48:53.388Z,9.73
2022-10-07T17:51:24.401Z,9.02
2022-10-07T17:53:52.170Z,9.57
2022-10-07T17:56:19.063Z,8.93
2022-10-07T17:58:47.178Z,9.45
2022-10-07T18:01:16.077Z,9.90
2022-10-07T18:03:43.297Z,9.77
2022-10-07T18:06:10.773Z,10.32
2022-10-07T18:08:41.169Z,9.80
2022-10-07T18:11:08.033Z,9.32
2022-10-07T18:13:53.370Z,10.00
2022-10-07T18:16:20.626Z,10.60
2022-10-07T18:18:48.383Z,10.10
2022-10-07T18:21:15.282Z,10.80
2022-10-07T18:23:42.338Z,9.95
2022-10-07T18:26:10.737Z,10.90
2022-10-07T18:28:38.449Z,10.35
2022-10-07T18:31:11.810Z,10.05
2022-10-07T18:33:39.148Z,10.45
2022-10-07T18:36:16.361Z,10.23
2022-10-07T18:38:43.692Z,10.25
2022-10-07T18:41:12.509Z,11.00
2022-10-07T18:43:39.513Z,10.13
2022-10-07T18:46:10.340Z,10.15
2022-10-07T18:48:38.028Z,10.55
2022-10-07T18:51:05.582Z,11.45
2022-10-07T18:53:42.243Z,12.07
2022-10-07T18:56:31.088Z,11.25
2022-10-07T18:59:11.487Z,11.68
2022-10-07T19:01:53.490Z,11.55
2022-10-07T19:04:33.818Z,11.52
2022-10-07T19:07:12.642Z,12.68
2022-10-07T19:09:51.613Z,12.18
2022-10-07T19:12:42.563Z,11.00
2022-10-07T19:15:24.400Z,11.25
2022-10-07T19:18:03.571Z,11.30
2022-10-07T19:20:43.412Z,11.02
2022-10-07T19:23:22.672Z,11.70
2022-10-07T19:26:08.926Z,10.70
2022-10-07T19:28:46.303Z,11.60
2022-10-07T19:31:36.490Z,10.90
2022-10-07T19:34:25.114Z,11.02
2022-10-07T19:37:03.706Z,10.35
2022-10-07T19:39:41.845Z,10.68
2022-10-07T19:42:18.581Z,11.60
2022-10-07T19:44:55.547Z,11.48
2022-10-07T19:47:33.563Z,11.68
2022-10-07T19:50:13.585Z,11.25
2022-10-07T19:52:52.309Z,11.57
2022-10-07T19:55:34.264Z,12.32
2022-10-07T19:58:13.451Z,12.27
2022-10-07T20:00:51.268Z,11.55
2022-10-07T20:03:26.951Z,11.35
2022-10-07T20:06:10.467Z,12.40
2022-10-07T20:08:56.884Z,10.75
2022-10-07T20:11:32.689Z,11.95
2022-10-07T20:14:08.571Z,11.93
2022-10-07T20:16:47.539Z,12.50
2022-10-07T20:19:27.628Z,12.32
2022-10-07T20:22:19.431Z,12.00
2022-10-07T20:25:02.426Z,12.40
2022-10-07T20:27:42.460Z,12.35
2022-10-07T20:30:25.864Z,11.75
2022-10-07T20:35:43.276Z,12.57
2022-10-07T20:38:19.586Z,12.65
2022-10-07T20:41:13.583Z,12.60
2022-10-07T20:43:51.588Z,12.10
2022-10-07T20:46:36.214Z,11.90
2022-10-07T20:49:34.727Z,12.45
2022-10-07T20:52:21.617Z,13.18
2022-10-07T20:55:04.756Z,14.20
2022-10-07T20:57:45.225Z,13.25
2022-10-07T21:00:16.352Z,14.13
2022-10-07T21:02:44.574Z,13.30
2022-10-07T21:05:11.704Z,12.57
2022-10-07T21:07:38.849Z,13.73
2022-10-07T21:10:05.865Z,13.73
2022-10-07T21:12:32.611Z,13.85
2022-10-07T21:15:01.191Z,13.68
2022-10-07T21:17:28.049Z,13.45
